sensor_id;sensor_type;location;lat;lon;timestamp;pressure;altitude;pressure_sealevel;temperature;humidity
84271;BME280;74614;50.032;19.566;2023-12-14T00:01:13;97229.21;;;4.76;75.84
84271;BME280;74614;50.032;19.566;2023-12-14T00:03:24;97233.65;;;4.76;75.85
84271;BME280;74614;50.032;19.566;2023-12-14T00:05:22;97235.01;;;4.85;75.86
84271;BME280;74614;50.032;19.566;2023-12-14T00:07:23;97235.53;;;4.76;76.05
84271;BME280;74614;50.032;19.566;2023-12-14T00:09:23;97237.37;;;4.80;76.00
84271;BME280;74614;50.032;19.566;2023-12-14T00:11:21;97235.61;;;4.84;76.01
84271;BME280;74614;50.032;19.566;2023-12-14T00:13:23;97237.09;;;5.02;75.76
84271;BME280;74614;50.032;19.566;2023-12-14T00:15:25;97238.79;;;5.21;75.38
84271;BME280;74614;50.032;19.566;2023-12-14T00:17:22;97240.45;;;5.32;75.13
84271;BME280;74614;50.032;19.566;2023-12-14T00:19:26;97237.90;;;5.39;75.04
84271;BME280;74614;50.032;19.566;2023-12-14T00:21:22;97245.65;;;5.35;74.92
84271;BME280;74614;50.032;19.566;2023-12-14T00:23:23;97246.48;;;5.17;75.47
84271;BME280;74614;50.032;19.566;2023-12-14T00:25:22;97246.56;;;5.19;75.36
84271;BME280;74614;50.032;19.566;2023-12-14T00:27:23;97252.88;;;5.16;75.22
84271;BME280;74614;50.032;19.566;2023-12-14T00:29:21;97247.33;;;5.05;75.39
84271;BME280;74614;50.032;19.566;2023-12-14T00:31:21;97253.60;;;5.07;75.45
84271;BME280;74614;50.032;19.566;2023-12-14T00:33:22;97253.64;;;5.13;75.24
84271;BME280;74614;50.032;19.566;2023-12-14T00:35:23;97260.86;;;5.07;75.28
84271;BME280;74614;50.032;19.566;2023-12-14T00:37:21;97261.18;;;5.00;75.39
84271;BME280;74614;50.032;19.566;2023-12-14T00:39:22;97265.47;;;5.02;75.46
84271;BME280;74614;50.032;19.566;2023-12-14T00:41:22;97264.31;;;5.11;75.18
84271;BME280;74614;50.032;19.566;2023-12-14T00:43:22;97266.75;;;5.17;75.25
84271;BME280;74614;50.032;19.566;2023-12-14T00:45:23;97267.91;;;5.25;74.95
84271;BME280;74614;50.032;19.566;2023-12-14T00:47:23;97270.73;;;5.23;74.95
84271;BME280;74614;50.032;19.566;2023-12-14T00:49:39;97276.05;;;5.25;75.10
84271;BME280;74614;50.032;19.566;2023-12-14T00:52:24;97279.08;;;5.18;75.33
84271;BME280;74614;50.032;19.566;2023-12-14T00:54:23;97286.16;;;5.22;75.28
84271;BME280;74614;50.032;19.566;2023-12-14T00:56:24;97283.07;;;5.27;75.14
84271;BME280;74614;50.032;19.566;2023-12-14T00:58:21;97283.23;;;5.41;74.88
84271;BME280;74614;50.032;19.566;2023-12-14T01:00:23;97283.00;;;5.45;74.52
84271;BME280;74614;50.032;19.566;2023-12-14T01:02:22;97290.87;;;5.29;74.61
84271;BME280;74614;50.032;19.566;2023-12-14T01:04:23;97284.92;;;5.13;74.88
84271;BME280;74614;50.032;19.566;2023-12-14T01:06:24;97286.57;;;5.01;75.14
84271;BME280;74614;50.032;19.566;2023-12-14T01:08:24;97286.66;;;4.93;75.33
84271;BME280;74614;50.032;19.566;2023-12-14T01:10:24;97290.37;;;4.88;75.41
84271;BME280;74614;50.032;19.566;2023-12-14T01:12:24;97294.56;;;4.85;75.44
84271;BME280;74614;50.032;19.566;2023-12-14T01:14:21;97294.52;;;4.92;75.36
84271;BME280;74614;50.032;19.566;2023-12-14T01:16:26;97290.15;;;5.05;75.08
84271;BME280;74614;50.032;19.566;2023-12-14T01:18:21;97293.23;;;5.14;75.00
84271;BME280;74614;50.032;19.566;2023-12-14T01:20:23;97295.13;;;5.06;75.11
84271;BME280;74614;50.032;19.566;2023-12-14T01:22:25;97292.44;;;4.98;75.33
84271;BME280;74614;50.032;19.566;2023-12-14T01:24:23;97296.11;;;4.89;75.52
84271;BME280;74614;50.032;19.566;2023-12-14T01:26:23;97299.30;;;4.80;75.60
84271;BME280;74614;50.032;19.566;2023-12-14T01:28:24;97302.12;;;4.72;75.71
84271;BME280;74614;50.032;19.566;2023-12-14T01:30:23;97301.37;;;4.73;75.55
84271;BME280;74614;50.032;19.566;2023-12-14T01:32:23;97294.65;;;4.85;75.52
84271;BME280;74614;50.032;19.566;2023-12-14T01:34:22;97296.83;;;4.79;75.68
84271;BME280;74614;50.032;19.566;2023-12-14T01:36:30;97297.54;;;4.75;75.74
84271;BME280;74614;50.032;19.566;2023-12-14T01:38:22;97293.52;;;4.74;75.89
84271;BME280;74614;50.032;19.566;2023-12-14T01:40:22;97293.78;;;4.63;76.12
84271;BME280;74614;50.032;19.566;2023-12-14T01:42:22;97300.70;;;4.62;76.22
84271;BME280;74614;50.032;19.566;2023-12-14T01:44:23;97301.78;;;4.60;76.17
84271;BME280;74614;50.032;19.566;2023-12-14T01:46:21;97301.77;;;4.59;76.17
84271;BME280;74614;50.032;19.566;2023-12-14T01:48:22;97302.67;;;4.55;76.24
84271;BME280;74614;50.032;19.566;2023-12-14T01:50:21;97298.29;;;4.54;76.29
84271;BME280;74614;50.032;19.566;2023-12-14T01:52:23;97290.84;;;4.69;76.16
84271;BME280;74614;50.032;19.566;2023-12-14T01:54:21;97291.06;;;4.85;75.76
84271;BME280;74614;50.032;19.566;2023-12-14T01:56:23;97294.00;;;4.80;75.73
84271;BME280;74614;50.032;19.566;2023-12-14T01:58:23;97288.65;;;4.74;75.90
84271;BME280;74614;50.032;19.566;2023-12-14T02:00:38;97289.00;;;4.75;75.95
84271;BME280;74614;50.032;19.566;2023-12-14T02:03:21;97291.16;;;4.86;75.66
84271;BME280;74614;50.032;19.566;2023-12-14T02:05:20;97291.61;;;4.92;75.59
84271;BME280;74614;50.032;19.566;2023-12-14T02:07:21;97291.85;;;5.03;75.47
84271;BME280;74614;50.032;19.566;2023-12-14T02:09:20;97292.31;;;5.17;75.21
84271;BME280;74614;50.032;19.566;2023-12-14T02:11:20;97294.68;;;5.24;75.00
84271;BME280;74614;50.032;19.566;2023-12-14T02:13:20;97289.47;;;5.26;74.91
84271;BME280;74614;50.032;19.566;2023-12-14T02:15:20;97290.20;;;5.31;74.67
84271;BME280;74614;50.032;19.566;2023-12-14T02:17:20;97289.83;;;5.21;74.66
84271;BME280;74614;50.032;19.566;2023-12-14T02:19:19;97293.52;;;5.09;74.96
84271;BME280;74614;50.032;19.566;2023-12-14T02:21:22;97296.69;;;4.96;75.18
84271;BME280;74614;50.032;19.566;2023-12-14T02:23:20;97306.97;;;4.91;75.35
84271;BME280;74614;50.032;19.566;2023-12-14T02:25:21;97310.28;;;4.84;75.46
84271;BME280;74614;50.032;19.566;2023-12-14T02:27:20;97314.54;;;4.87;75.44
84271;BME280;74614;50.032;19.566;2023-12-14T02:29:21;97313.71;;;5.02;75.08
84271;BME280;74614;50.032;19.566;2023-12-14T02:31:24;97315.44;;;5.00;75.12
84271;BME280;74614;50.032;19.566;2023-12-14T02:33:21;97314.39;;;4.89;75.28
84271;BME280;74614;50.032;19.566;2023-12-14T02:35:21;97321.17;;;4.79;75.39
84271;BME280;74614;50.032;19.566;2023-12-14T02:37:20;97325.17;;;4.71;75.53
84271;BME280;74614;50.032;19.566;2023-12-14T02:39:21;97326.61;;;4.65;75.61
84271;BME280;74614;50.032;19.566;2023-12-14T02:41:22;97325.32;;;4.65;75.74
84271;BME280;74614;50.032;19.566;2023-12-14T02:43:20;97331.01;;;4.61;75.78
84271;BME280;74614;50.032;19.566;2023-12-14T02:45:23;97335.59;;;4.59;75.92
84271;BME280;74614;50.032;19.566;2023-12-14T02:47:21;97340.26;;;4.57;75.89
84271;BME280;74614;50.032;19.566;2023-12-14T02:49:20;97340.15;;;4.55;76.01
84271;BME280;74614;50.032;19.566;2023-12-14T02:51:20;97340.15;;;4.56;75.94
84271;BME280;74614;50.032;19.566;2023-12-14T02:53:19;97344.51;;;4.63;75.83
84271;BME280;74614;50.032;19.566;2023-12-14T02:55:21;97347.30;;;4.79;75.50
84271;BME280;74614;50.032;19.566;2023-12-14T02:57:21;97348.36;;;4.82;75.46
84271;BME280;74614;50.032;19.566;2023-12-14T02:59:19;97345.14;;;4.83;75.53
84271;BME280;74614;50.032;19.566;2023-12-14T03:01:20;97342.08;;;4.89;75.39
84271;BME280;74614;50.032;19.566;2023-12-14T03:03:21;97341.96;;;4.86;75.49
84271;BME280;74614;50.032;19.566;2023-12-14T03:05:20;97343.91;;;4.93;75.53
84271;BME280;74614;50.032;19.566;2023-12-14T03:07:20;97344.75;;;5.03;75.25
84271;BME280;74614;50.032;19.566;2023-12-14T03:09:20;97343.14;;;5.04;75.12
84271;BME280;74614;50.032;19.566;2023-12-14T03:11:22;97350.73;;;5.00;75.25
84271;BME280;74614;50.032;19.566;2023-12-14T03:13:20;97352.86;;;4.90;75.34
84271;BME280;74614;50.032;19.566;2023-12-14T03:15:20;97350.23;;;4.81;75.53
84271;BME280;74614;50.032;19.566;2023-12-14T03:17:20;97352.04;;;4.75;75.67
84271;BME280;74614;50.032;19.566;2023-12-14T03:19:22;97358.41;;;4.71;75.84
84271;BME280;74614;50.032;19.566;2023-12-14T03:21:20;97359.14;;;4.65;75.73
84271;BME280;74614;50.032;19.566;2023-12-14T03:23:22;97360.90;;;4.62;75.79
84271;BME280;74614;50.032;19.566;2023-12-14T03:25:20;97359.64;;;4.64;75.79
84271;BME280;74614;50.032;19.566;2023-12-14T03:27:21;97360.33;;;4.74;75.71
84271;BME280;74614;50.032;19.566;2023-12-14T03:29:22;97356.12;;;4.92;75.54
84271;BME280;74614;50.032;19.566;2023-12-14T03:31:20;97361.24;;;5.02;75.32
84271;BME280;74614;50.032;19.566;2023-12-14T03:33:20;97356.57;;;5.14;75.09
84271;BME280;74614;50.032;19.566;2023-12-14T03:35:19;97358.04;;;5.16;75.01
84271;BME280;74614;50.032;19.566;2023-12-14T03:37:20;97359.26;;;5.18;75.01
84271;BME280;74614;50.032;19.566;2023-12-14T03:39:21;97364.02;;;5.16;74.95
84271;BME280;74614;50.032;19.566;2023-12-14T03:41:20;97377.49;;;5.01;75.08
84271;BME280;74614;50.032;19.566;2023-12-14T03:43:20;97385.77;;;4.91;75.30
84271;BME280;74614;50.032;19.566;2023-12-14T03:45:23;97393.57;;;4.83;75.38
84271;BME280;74614;50.032;19.566;2023-12-14T03:47:20;97399.01;;;4.74;75.46
84271;BME280;74614;50.032;19.566;2023-12-14T03:49:20;97406.59;;;4.71;75.51
84271;BME280;74614;50.032;19.566;2023-12-14T03:51:21;97409.82;;;4.67;75.65
84271;BME280;74614;50.032;19.566;2023-12-14T03:53:21;97411.68;;;4.59;75.93
84271;BME280;74614;50.032;19.566;2023-12-14T03:55:20;97411.71;;;4.52;76.06
84271;BME280;74614;50.032;19.566;2023-12-14T03:57:21;97418.27;;;4.54;76.17
84271;BME280;74614;50.032;19.566;2023-12-14T03:59:20;97420.45;;;4.64;75.95
84271;BME280;74614;50.032;19.566;2023-12-14T04:01:23;97419.07;;;4.69;75.81
84271;BME280;74614;50.032;19.566;2023-12-14T04:03:20;97424.02;;;4.69;75.66
84271;BME280;74614;50.032;19.566;2023-12-14T04:05:21;97428.55;;;4.71;75.68
84271;BME280;74614;50.032;19.566;2023-12-14T04:07:22;97430.66;;;4.67;75.80
84271;BME280;74614;50.032;19.566;2023-12-14T04:09:21;97439.29;;;4.61;75.88
84271;BME280;74614;50.032;19.566;2023-12-14T04:11:23;97444.85;;;4.55;76.04
84271;BME280;74614;50.032;19.566;2023-12-14T04:13:23;97450.37;;;4.50;76.16
84271;BME280;74614;50.032;19.566;2023-12-14T04:15:22;97449.69;;;4.44;76.25
84271;BME280;74614;50.032;19.566;2023-12-14T04:17:22;97455.69;;;4.40;76.21
84271;BME280;74614;50.032;19.566;2023-12-14T04:19:20;97458.14;;;4.38;76.24
84271;BME280;74614;50.032;19.566;2023-12-14T04:21:20;97458.92;;;4.39;76.25
84271;BME280;74614;50.032;19.566;2023-12-14T04:23:20;97461.96;;;4.48;76.17
84271;BME280;74614;50.032;19.566;2023-12-14T04:25:20;97462.23;;;4.58;76.08
84271;BME280;74614;50.032;19.566;2023-12-14T04:27:19;97464.65;;;4.67;76.02
84271;BME280;74614;50.032;19.566;2023-12-14T04:29:20;97468.34;;;4.68;75.81
84271;BME280;74614;50.032;19.566;2023-12-14T04:31:21;97472.96;;;4.71;75.75
84271;BME280;74614;50.032;19.566;2023-12-14T04:33:21;97475.96;;;4.69;75.92
84271;BME280;74614;50.032;19.566;2023-12-14T04:35:23;97481.18;;;4.64;75.99
84271;BME280;74614;50.032;19.566;2023-12-14T04:37:20;97484.00;;;4.57;76.21
84271;BME280;74614;50.032;19.566;2023-12-14T04:39:20;97489.50;;;4.51;76.29
84271;BME280;74614;50.032;19.566;2023-12-14T04:41:21;97490.05;;;4.48;76.47
84271;BME280;74614;50.032;19.566;2023-12-14T04:43:20;97490.80;;;4.46;76.43
84271;BME280;74614;50.032;19.566;2023-12-14T04:45:21;97493.59;;;4.51;76.25
84271;BME280;74614;50.032;19.566;2023-12-14T04:47:20;97496.17;;;4.67;76.08
84271;BME280;74614;50.032;19.566;2023-12-14T04:49:21;97502.58;;;4.75;76.03
84271;BME280;74614;50.032;19.566;2023-12-14T04:51:20;97499.72;;;4.72;76.08
84271;BME280;74614;50.032;19.566;2023-12-14T04:53:21;97504.48;;;4.77;75.98
84271;BME280;74614;50.032;19.566;2023-12-14T04:55:21;97503.86;;;4.82;75.86
84271;BME280;74614;50.032;19.566;2023-12-14T04:57:22;97509.01;;;4.78;75.88
84271;BME280;74614;50.032;19.566;2023-12-14T04:59:20;97506.10;;;4.57;76.29
84271;BME280;74614;50.032;19.566;2023-12-14T05:01:21;97508.98;;;4.61;76.28
84271;BME280;74614;50.032;19.566;2023-12-14T05:03:22;97510.94;;;4.61;76.35
84271;BME280;74614;50.032;19.566;2023-12-14T05:05:20;97513.46;;;4.69;76.06
84271;BME280;74614;50.032;19.566;2023-12-14T05:07:20;97516.96;;;4.63;76.14
84271;BME280;74614;50.032;19.566;2023-12-14T05:09:20;97518.90;;;4.68;76.12
84271;BME280;74614;50.032;19.566;2023-12-14T05:11:20;97525.80;;;4.81;75.85
84271;BME280;74614;50.032;19.566;2023-12-14T05:13:22;97528.52;;;4.95;75.54
84271;BME280;74614;50.032;19.566;2023-12-14T05:15:20;97533.78;;;4.93;75.60
84271;BME280;74614;50.032;19.566;2023-12-14T05:17:21;97531.51;;;4.94;75.63
84271;BME280;74614;50.032;19.566;2023-12-14T05:19:21;97530.03;;;5.08;75.31
84271;BME280;74614;50.032;19.566;2023-12-14T05:21:20;97528.42;;;4.94;75.40
84271;BME280;74614;50.032;19.566;2023-12-14T05:23:19;97531.38;;;4.83;75.65
84271;BME280;74614;50.032;19.566;2023-12-14T05:25:20;97530.99;;;4.80;75.78
84271;BME280;74614;50.032;19.566;2023-12-14T05:27:24;97536.11;;;4.88;75.54
84271;BME280;74614;50.032;19.566;2023-12-14T05:29:21;97539.67;;;4.98;75.35
84271;BME280;74614;50.032;19.566;2023-12-14T05:31:21;97540.24;;;5.05;75.16
84271;BME280;74614;50.032;19.566;2023-12-14T05:33:21;97542.20;;;5.02;75.10
84271;BME280;74614;50.032;19.566;2023-12-14T05:35:20;97540.32;;;4.95;75.24
84271;BME280;74614;50.032;19.566;2023-12-14T05:37:20;97545.06;;;4.86;75.33
84271;BME280;74614;50.032;19.566;2023-12-14T05:39:22;97547.29;;;4.86;75.40
84271;BME280;74614;50.032;19.566;2023-12-14T05:41:20;97551.49;;;4.88;75.45
84271;BME280;74614;50.032;19.566;2023-12-14T05:43:21;97555.54;;;4.91;75.39
84271;BME280;74614;50.032;19.566;2023-12-14T05:45:21;97559.74;;;4.82;75.49
84271;BME280;74614;50.032;19.566;2023-12-14T05:47:20;97559.15;;;4.68;75.77
84271;BME280;74614;50.032;19.566;2023-12-14T05:49:20;97563.07;;;4.67;75.78
84271;BME280;74614;50.032;19.566;2023-12-14T05:51:28;97568.90;;;4.58;75.88
84271;BME280;74614;50.032;19.566;2023-12-14T05:53:20;97568.91;;;4.46;76.22
84271;BME280;74614;50.032;19.566;2023-12-14T05:55:27;97575.12;;;4.57;76.14
84271;BME280;74614;50.032;19.566;2023-12-14T05:57:20;97574.92;;;4.61;75.77
84271;BME280;74614;50.032;19.566;2023-12-14T05:59:22;97582.10;;;4.66;75.79
84271;BME280;74614;50.032;19.566;2023-12-14T06:01:20;97584.15;;;4.80;75.48
84271;BME280;74614;50.032;19.566;2023-12-14T06:03:21;97586.52;;;4.79;75.57
84271;BME280;74614;50.032;19.566;2023-12-14T06:05:20;97587.27;;;4.78;75.67
84271;BME280;74614;50.032;19.566;2023-12-14T06:07:23;97585.56;;;4.72;75.70
84271;BME280;74614;50.032;19.566;2023-12-14T06:09:19;97589.75;;;4.65;75.82
84271;BME280;74614;50.032;19.566;2023-12-14T06:11:21;97589.69;;;4.60;75.89
84271;BME280;74614;50.032;19.566;2023-12-14T06:13:23;97590.67;;;4.57;75.98
84271;BME280;74614;50.032;19.566;2023-12-14T06:15:20;97597.12;;;4.54;76.02
84271;BME280;74614;50.032;19.566;2023-12-14T06:17:21;97601.05;;;4.53;75.95
84271;BME280;74614;50.032;19.566;2023-12-14T06:19:20;97609.48;;;4.48;76.14
84271;BME280;74614;50.032;19.566;2023-12-14T06:21:22;97616.04;;;4.50;76.40
84271;BME280;74614;50.032;19.566;2023-12-14T06:23:20;97609.14;;;4.46;76.20
84271;BME280;74614;50.032;19.566;2023-12-14T06:25:20;97614.61;;;4.51;76.19
84271;BME280;74614;50.032;19.566;2023-12-14T06:27:20;97622.91;;;4.54;76.21
84271;BME280;74614;50.032;19.566;2023-12-14T06:30:12;97626.15;;;4.60;75.96
84271;BME280;74614;50.032;19.566;2023-12-14T06:32:22;97628.38;;;4.65;75.85
84271;BME280;74614;50.032;19.566;2023-12-14T06:34:22;97628.34;;;4.70;75.88
84271;BME280;74614;50.032;19.566;2023-12-14T06:36:31;97631.08;;;4.69;75.94
84271;BME280;74614;50.032;19.566;2023-12-14T06:38:23;97633.39;;;4.64;76.10
84271;BME280;74614;50.032;19.566;2023-12-14T06:40:22;97644.35;;;4.60;76.24
84271;BME280;74614;50.032;19.566;2023-12-14T06:42:22;97643.59;;;4.53;76.32
84271;BME280;74614;50.032;19.566;2023-12-14T06:44:22;97643.72;;;4.51;76.19
84271;BME280;74614;50.032;19.566;2023-12-14T06:46:22;97653.09;;;4.50;76.38
84271;BME280;74614;50.032;19.566;2023-12-14T06:48:24;97660.44;;;4.50;76.32
84271;BME280;74614;50.032;19.566;2023-12-14T06:50:22;97659.03;;;4.52;76.20
84271;BME280;74614;50.032;19.566;2023-12-14T06:52:23;97659.18;;;4.63;76.66
84271;BME280;74614;50.032;19.566;2023-12-14T06:54:21;97659.89;;;4.78;76.36
84271;BME280;74614;50.032;19.566;2023-12-14T06:56:23;97663.15;;;4.87;76.20
84271;BME280;74614;50.032;19.566;2023-12-14T06:58:23;97671.29;;;4.99;76.03
84271;BME280;74614;50.032;19.566;2023-12-14T07:00:23;97669.53;;;4.95;75.85
84271;BME280;74614;50.032;19.566;2023-12-14T07:02:22;97674.27;;;4.92;76.10
84271;BME280;74614;50.032;19.566;2023-12-14T07:04:25;97673.88;;;4.94;75.85
84271;BME280;74614;50.032;19.566;2023-12-14T07:06:24;97674.18;;;4.91;75.84
84271;BME280;74614;50.032;19.566;2023-12-14T07:08:25;97681.34;;;4.83;76.04
84271;BME280;74614;50.032;19.566;2023-12-14T07:10:25;97685.55;;;4.87;76.04
84271;BME280;74614;50.032;19.566;2023-12-14T07:12:24;97681.21;;;4.99;75.80
84271;BME280;74614;50.032;19.566;2023-12-14T07:14:25;97692.50;;;5.13;75.40
84271;BME280;74614;50.032;19.566;2023-12-14T07:16:23;97690.19;;;5.13;75.36
84271;BME280;74614;50.032;19.566;2023-12-14T07:18:23;97695.14;;;5.06;75.48
84271;BME280;74614;50.032;19.566;2023-12-14T07:20:24;97701.65;;;5.00;75.59
84271;BME280;74614;50.032;19.566;2023-12-14T07:22:24;97700.87;;;4.93;75.73
84271;BME280;74614;50.032;19.566;2023-12-14T07:24:26;97701.29;;;4.88;75.74
84271;BME280;74614;50.032;19.566;2023-12-14T07:26:26;97702.79;;;4.84;75.93
84271;BME280;74614;50.032;19.566;2023-12-14T07:28:27;97709.02;;;4.83;76.01
84271;BME280;74614;50.032;19.566;2023-12-14T07:30:22;97707.28;;;4.88;76.08
84271;BME280;74614;50.032;19.566;2023-12-14T07:32:27;97709.21;;;4.97;75.90
84271;BME280;74614;50.032;19.566;2023-12-14T07:34:23;97711.74;;;4.82;76.24
84271;BME280;74614;50.032;19.566;2023-12-14T07:36:25;97716.39;;;4.91;76.18
84271;BME280;74614;50.032;19.566;2023-12-14T07:38:22;97718.71;;;4.93;76.13
84271;BME280;74614;50.032;19.566;2023-12-14T07:40:25;97718.24;;;4.95;76.02
84271;BME280;74614;50.032;19.566;2023-12-14T07:42:24;97723.41;;;4.97;75.96
84271;BME280;74614;50.032;19.566;2023-12-14T07:44:29;97722.76;;;5.00;75.84
84271;BME280;74614;50.032;19.566;2023-12-14T07:46:22;97723.58;;;5.11;75.70
84271;BME280;74614;50.032;19.566;2023-12-14T07:48:23;97726.15;;;5.19;75.65
84271;BME280;74614;50.032;19.566;2023-12-14T07:50:25;97726.06;;;5.22;75.54
84271;BME280;74614;50.032;19.566;2023-12-14T07:52:23;97730.29;;;5.08;75.86
84271;BME280;74614;50.032;19.566;2023-12-14T07:54:22;97732.87;;;5.04;76.11
84271;BME280;74614;50.032;19.566;2023-12-14T07:56:29;97740.68;;;5.10;75.94
84271;BME280;74614;50.032;19.566;2023-12-14T07:58:23;97743.39;;;5.15;75.95
84271;BME280;74614;50.032;19.566;2023-12-14T08:00:28;97746.42;;;5.19;75.85
84271;BME280;74614;50.032;19.566;2023-12-14T08:02:23;97748.90;;;5.28;75.72
84271;BME280;74614;50.032;19.566;2023-12-14T08:04:24;97756.27;;;5.29;75.69
84271;BME280;74614;50.032;19.566;2023-12-14T08:06:22;97757.36;;;5.34;75.75
84271;BME280;74614;50.032;19.566;2023-12-14T08:08:27;97760.42;;;5.40;75.37
84271;BME280;74614;50.032;19.566;2023-12-14T08:10:24;97764.13;;;5.23;75.62
84271;BME280;74614;50.032;19.566;2023-12-14T08:12:31;97768.49;;;5.29;75.70
84271;BME280;74614;50.032;19.566;2023-12-14T08:14:22;97763.37;;;5.43;75.52
84271;BME280;74614;50.032;19.566;2023-12-14T08:16:22;97764.93;;;5.50;75.44
84271;BME280;74614;50.032;19.566;2023-12-14T08:18:23;97770.62;;;5.55;75.32
84271;BME280;74614;50.032;19.566;2023-12-14T08:20:31;97771.06;;;5.48;75.55
84271;BME280;74614;50.032;19.566;2023-12-14T08:22:25;97774.74;;;5.43;75.48
84271;BME280;74614;50.032;19.566;2023-12-14T08:24:23;97775.05;;;5.46;75.61
84271;BME280;74614;50.032;19.566;2023-12-14T08:26:29;97778.38;;;5.59;75.44
84271;BME280;74614;50.032;19.566;2023-12-14T08:28:23;97782.06;;;5.66;75.32
84271;BME280;74614;50.032;19.566;2023-12-14T08:30:26;97788.76;;;5.67;75.24
84271;BME280;74614;50.032;19.566;2023-12-14T08:32:28;97789.58;;;5.64;75.23
84271;BME280;74614;50.032;19.566;2023-12-14T08:34:22;97793.45;;;5.66;75.13
84271;BME280;74614;50.032;19.566;2023-12-14T08:36:26;97797.49;;;5.56;75.36
84271;BME280;74614;50.032;19.566;2023-12-14T08:38:21;97808.21;;;5.58;75.35
84271;BME280;74614;50.032;19.566;2023-12-14T08:40:28;97805.68;;;5.66;75.27
84271;BME280;74614;50.032;19.566;2023-12-14T08:42:25;97812.52;;;5.65;75.31
84271;BME280;74614;50.032;19.566;2023-12-14T08:44:38;97809.72;;;5.70;75.18
84271;BME280;74614;50.032;19.566;2023-12-14T08:47:22;97820.53;;;5.63;75.14
84271;BME280;74614;50.032;19.566;2023-12-14T08:49:24;97824.54;;;5.71;75.13
84271;BME280;74614;50.032;19.566;2023-12-14T08:51:29;97832.51;;;5.72;75.01
84271;BME280;74614;50.032;19.566;2023-12-14T08:53:24;97839.68;;;5.84;74.81
84271;BME280;74614;50.032;19.566;2023-12-14T08:55:21;97837.52;;;5.81;74.69
84271;BME280;74614;50.032;19.566;2023-12-14T08:57:23;97842.31;;;5.74;74.73
84271;BME280;74614;50.032;19.566;2023-12-14T08:59:24;97848.32;;;5.70;74.95
84271;BME280;74614;50.032;19.566;2023-12-14T09:01:32;97846.05;;;5.79;74.68
84271;BME280;74614;50.032;19.566;2023-12-14T09:03:24;97849.88;;;5.83;74.76
84271;BME280;74614;50.032;19.566;2023-12-14T09:05:25;97848.76;;;5.97;74.65
84271;BME280;74614;50.032;19.566;2023-12-14T09:07:22;97849.87;;;6.11;74.46
84271;BME280;74614;50.032;19.566;2023-12-14T09:09:21;97856.37;;;6.11;74.37
84271;BME280;74614;50.032;19.566;2023-12-14T09:11:23;97858.26;;;6.05;74.52
84271;BME280;74614;50.032;19.566;2023-12-14T09:13:26;97862.47;;;5.92;74.16
84271;BME280;74614;50.032;19.566;2023-12-14T09:15:22;97864.03;;;5.80;74.46
84271;BME280;74614;50.032;19.566;2023-12-14T09:17:21;97862.37;;;5.71;74.50
84271;BME280;74614;50.032;19.566;2023-12-14T09:19:24;97864.14;;;5.69;74.83
84271;BME280;74614;50.032;19.566;2023-12-14T09:21:23;97866.65;;;5.77;74.70
84271;BME280;74614;50.032;19.566;2023-12-14T09:23:25;97870.45;;;5.88;74.68
84271;BME280;74614;50.032;19.566;2023-12-14T09:25:23;97876.25;;;5.83;74.60
84271;BME280;74614;50.032;19.566;2023-12-14T09:27:23;97881.63;;;5.83;74.58
84271;BME280;74614;50.032;19.566;2023-12-14T09:29:23;97883.60;;;5.83;74.61
84271;BME280;74614;50.032;19.566;2023-12-14T09:31:23;97887.94;;;5.84;74.52
84271;BME280;74614;50.032;19.566;2023-12-14T09:33:21;97888.60;;;5.93;74.37
84271;BME280;74614;50.032;19.566;2023-12-14T09:35:25;97890.86;;;5.96;74.27
84271;BME280;74614;50.032;19.566;2023-12-14T09:37:23;97890.20;;;5.97;74.38
84271;BME280;74614;50.032;19.566;2023-12-14T09:39:25;97891.36;;;5.95;74.19
84271;BME280;74614;50.032;19.566;2023-12-14T09:41:21;97892.29;;;5.94;74.27
84271;BME280;74614;50.032;19.566;2023-12-14T09:43:25;97890.96;;;5.85;74.23
84271;BME280;74614;50.032;19.566;2023-12-14T09:45:24;97894.39;;;5.73;74.05
84271;BME280;74614;50.032;19.566;2023-12-14T09:47:29;97895.64;;;5.62;74.12
84271;BME280;74614;50.032;19.566;2023-12-14T09:49:22;97893.62;;;5.60;74.32
84271;BME280;74614;50.032;19.566;2023-12-14T09:51:37;97891.86;;;5.57;74.59
84271;BME280;74614;50.032;19.566;2023-12-14T09:54:26;97892.94;;;5.67;74.61
84271;BME280;74614;50.032;19.566;2023-12-14T09:56:22;97896.65;;;5.69;74.58
84271;BME280;74614;50.032;19.566;2023-12-14T09:58:20;97900.13;;;5.68;74.73
84271;BME280;74614;50.032;19.566;2023-12-14T10:00:34;97902.53;;;5.79;74.56
84271;BME280;74614;50.032;19.566;2023-12-14T10:02:26;97899.58;;;5.76;74.60
84271;BME280;74614;50.032;19.566;2023-12-14T10:04:26;97904.70;;;5.75;74.46
84271;BME280;74614;50.032;19.566;2023-12-14T10:06:24;97903.27;;;5.77;74.32
84271;BME280;74614;50.032;19.566;2023-12-14T10:08:22;97906.83;;;5.67;74.22
84271;BME280;74614;50.032;19.566;2023-12-14T10:10:29;97911.98;;;5.51;74.54
84271;BME280;74614;50.032;19.566;2023-12-14T10:12:24;97914.56;;;5.37;74.53
84271;BME280;74614;50.032;19.566;2023-12-14T10:14:23;97911.83;;;5.30;74.82
84271;BME280;74614;50.032;19.566;2023-12-14T10:16:28;97914.39;;;5.37;74.94
84271;BME280;74614;50.032;19.566;2023-12-14T10:18:43;97916.36;;;5.47;74.90
84271;BME280;74614;50.032;19.566;2023-12-14T10:21:21;97913.85;;;5.57;74.74
84271;BME280;74614;50.032;19.566;2023-12-14T10:23:27;97920.61;;;5.62;74.52
84271;BME280;74614;50.032;19.566;2023-12-14T10:25:24;97922.19;;;5.72;74.33
84271;BME280;74614;50.032;19.566;2023-12-14T10:27:26;97925.28;;;5.65;74.41
84271;BME280;74614;50.032;19.566;2023-12-14T10:29:23;97928.36;;;5.69;74.52
84271;BME280;74614;50.032;19.566;2023-12-14T10:31:24;97930.64;;;5.71;74.59
84271;BME280;74614;50.032;19.566;2023-12-14T10:33:22;97928.80;;;5.78;74.43
84271;BME280;74614;50.032;19.566;2023-12-14T10:35:24;97935.79;;;5.84;74.25
84271;BME280;74614;50.032;19.566;2023-12-14T10:37:24;97934.22;;;5.75;74.43
84271;BME280;74614;50.032;19.566;2023-12-14T10:39:27;97936.96;;;5.70;74.42
84271;BME280;74614;50.032;19.566;2023-12-14T10:41:26;97941.00;;;5.59;74.41